sensor_id;sensor_type;location;lat;lon;timestamp;P1;durP1;ratioP1;P2;durP2;ratioP2
76171;SDS011;64929;51.178;4.138;2023-03-01T00:00:14;5.43;;;3.20;;
76171;SDS011;64929;51.178;4.138;2023-03-01T00:02:40;3.80;;;2.90;;
76171;SDS011;64929;51.178;4.138;2023-03-01T00:05:05;4.33;;;2.90;;
76171;SDS011;64929;51.178;4.138;2023-03-01T00:07:32;4.43;;;2.80;;
76171;SDS011;64929;51.178;4.138;2023-03-01T00:09:58;5.23;;;3.17;;
76171;SDS011;64929;51.178;4.138;2023-03-01T00:12:23;4.00;;;2.77;;
76171;SDS011;64929;51.178;4.138;2023-03-01T00:14:49;4.53;;;2.67;;
76171;SDS011;64929;51.178;4.138;2023-03-01T00:17:15;5.90;;;2.83;;
76171;SDS011;64929;51.178;4.138;2023-03-01T00:19:41;3.87;;;2.73;;
76171;SDS011;64929;51.178;4.138;2023-03-01T00:22:06;8.00;;;3.43;;
76171;SDS011;64929;51.178;4.138;2023-03-01T00:24:32;4.80;;;2.83;;
76171;SDS011;64929;51.178;4.138;2023-03-01T00:26:57;5.73;;;3.60;;
76171;SDS011;64929;51.178;4.138;2023-03-01T00:29:24;3.13;;;2.67;;
76171;SDS011;64929;51.178;4.138;2023-03-01T00:31:49;5.23;;;3.10;;
76171;SDS011;64929;51.178;4.138;2023-03-01T00:34:15;4.47;;;3.17;;
76171;SDS011;64929;51.178;4.138;2023-03-01T00:36:41;7.03;;;3.30;;
76171;SDS011;64929;51.178;4.138;2023-03-01T00:39:09;5.27;;;3.23;;
76171;SDS011;64929;51.178;4.138;2023-03-01T00:41:38;6.80;;;3.67;;
76171;SDS011;64929;51.178;4.138;2023-03-01T00:44:05;8.50;;;3.63;;
76171;SDS011;64929;51.178;4.138;2023-03-01T00:46:30;5.67;;;3.60;;
76171;SDS011;64929;51.178;4.138;2023-03-01T00:48:56;5.40;;;3.60;;
76171;SDS011;64929;51.178;4.138;2023-03-01T00:51:23;6.90;;;3.63;;
76171;SDS011;64929;51.178;4.138;2023-03-01T00:53:54;6.00;;;3.63;;
76171;SDS011;64929;51.178;4.138;2023-03-01T00:56:21;4.10;;;3.27;;
76171;SDS011;64929;51.178;4.138;2023-03-01T00:58:47;4.30;;;3.30;;
76171;SDS011;64929;51.178;4.138;2023-03-01T01:01:17;4.70;;;3.17;;
76171;SDS011;64929;51.178;4.138;2023-03-01T01:03:46;5.87;;;3.53;;
76171;SDS011;64929;51.178;4.138;2023-03-01T01:06:15;6.20;;;3.10;;
76171;SDS011;64929;51.178;4.138;2023-03-01T01:08:42;6.47;;;3.07;;
76171;SDS011;64929;51.178;4.138;2023-03-01T01:11:11;4.30;;;3.20;;
76171;SDS011;64929;51.178;4.138;2023-03-01T01:13:37;5.77;;;3.20;;
76171;SDS011;64929;51.178;4.138;2023-03-01T01:16:03;10.30;;;3.43;;
76171;SDS011;64929;51.178;4.138;2023-03-01T01:18:29;5.93;;;3.10;;
76171;SDS011;64929;51.178;4.138;2023-03-01T01:20:55;3.87;;;2.90;;
76171;SDS011;64929;51.178;4.138;2023-03-01T01:23:20;6.37;;;3.17;;
76171;SDS011;64929;51.178;4.138;2023-03-01T01:25:46;5.90;;;3.63;;
76171;SDS011;64929;51.178;4.138;2023-03-01T01:28:12;7.70;;;3.60;;
76171;SDS011;64929;51.178;4.138;2023-03-01T01:30:37;4.37;;;2.97;;
76171;SDS011;64929;51.178;4.138;2023-03-01T01:33:03;13.87;;;3.83;;
76171;SDS011;64929;51.178;4.138;2023-03-01T01:35:28;4.53;;;3.13;;
76171;SDS011;64929;51.178;4.138;2023-03-01T01:37:54;4.60;;;3.07;;
76171;SDS011;64929;51.178;4.138;2023-03-01T01:40:20;7.60;;;3.50;;
76171;SDS011;64929;51.178;4.138;2023-03-01T01:42:45;4.30;;;2.87;;
76171;SDS011;64929;51.178;4.138;2023-03-01T01:48:10;5.57;;;3.57;;
76171;SDS011;64929;51.178;4.138;2023-03-01T01:50:41;6.43;;;3.23;;
76171;SDS011;64929;51.178;4.138;2023-03-01T01:53:11;7.67;;;3.23;;
76171;SDS011;64929;51.178;4.138;2023-03-01T01:55:41;5.45;;;3.47;;
76171;SDS011;64929;51.178;4.138;2023-03-01T01:58:11;7.83;;;3.40;;
76171;SDS011;64929;51.178;4.138;2023-03-01T02:00:39;3.92;;;2.97;;
76171;SDS011;64929;51.178;4.138;2023-03-01T02:03:10;4.67;;;2.90;;
76171;SDS011;64929;51.178;4.138;2023-03-01T02:10:35;3.73;;;2.70;;
76171;SDS011;64929;51.178;4.138;2023-03-01T02:13:02;4.90;;;3.40;;
76171;SDS011;64929;51.178;4.138;2023-03-01T02:15:32;5.40;;;3.33;;
76171;SDS011;64929;51.178;4.138;2023-03-01T02:18:00;6.27;;;3.70;;
76171;SDS011;64929;51.178;4.138;2023-03-01T02:23:14;6.83;;;3.50;;
76171;SDS011;64929;51.178;4.138;2023-03-01T02:28:32;5.43;;;3.30;;
76171;SDS011;64929;51.178;4.138;2023-03-01T02:31:00;7.33;;;4.07;;
76171;SDS011;64929;51.178;4.138;2023-03-01T02:33:47;6.63;;;3.10;;
76171;SDS011;64929;51.178;4.138;2023-03-01T02:36:23;5.23;;;3.23;;
76171;SDS011;64929;51.178;4.138;2023-03-01T02:38:52;8.63;;;4.13;;
76171;SDS011;64929;51.178;4.138;2023-03-01T02:41:21;5.05;;;3.58;;
76171;SDS011;64929;51.178;4.138;2023-03-01T02:43:48;5.33;;;2.90;;
76171;SDS011;64929;51.178;4.138;2023-03-01T02:46:19;6.23;;;3.80;;
76171;SDS011;64929;51.178;4.138;2023-03-01T02:48:51;7.33;;;3.20;;
76171;SDS011;64929;51.178;4.138;2023-03-01T02:54:28;8.30;;;4.27;;
76171;SDS011;64929;51.178;4.138;2023-03-01T02:56:58;6.10;;;3.43;;
76171;SDS011;64929;51.178;4.138;2023-03-01T02:59:25;6.13;;;3.60;;
76171;SDS011;64929;51.178;4.138;2023-03-01T03:01:55;7.23;;;3.70;;
76171;SDS011;64929;51.178;4.138;2023-03-01T03:04:20;6.47;;;4.07;;
76171;SDS011;64929;51.178;4.138;2023-03-01T03:06:47;8.10;;;4.03;;
76171;SDS011;64929;51.178;4.138;2023-03-01T03:09:14;9.17;;;4.30;;
76171;SDS011;64929;51.178;4.138;2023-03-01T03:11:41;8.13;;;4.90;;
76171;SDS011;64929;51.178;4.138;2023-03-01T03:14:10;6.57;;;3.97;;
76171;SDS011;64929;51.178;4.138;2023-03-01T03:16:47;11.38;;;4.32;;
76171;SDS011;64929;51.178;4.138;2023-03-01T03:19:14;8.13;;;4.03;;
76171;SDS011;64929;51.178;4.138;2023-03-01T03:21:42;8.03;;;4.57;;
76171;SDS011;64929;51.178;4.138;2023-03-01T03:24:08;6.90;;;4.50;;
76171;SDS011;64929;51.178;4.138;2023-03-01T03:26:34;9.67;;;4.63;;
76171;SDS011;64929;51.178;4.138;2023-03-01T03:29:00;8.67;;;4.77;;
76171;SDS011;64929;51.178;4.138;2023-03-01T03:31:26;5.43;;;4.20;;
76171;SDS011;64929;51.178;4.138;2023-03-01T03:33:51;10.33;;;4.97;;
76171;SDS011;64929;51.178;4.138;2023-03-01T03:36:18;11.27;;;4.43;;
76171;SDS011;64929;51.178;4.138;2023-03-01T03:38:45;7.40;;;4.47;;
76171;SDS011;64929;51.178;4.138;2023-03-01T03:41:11;6.93;;;4.43;;
76171;SDS011;64929;51.178;4.138;2023-03-01T03:43:38;10.27;;;5.60;;
76171;SDS011;64929;51.178;4.138;2023-03-01T03:46:07;6.97;;;4.57;;
76171;SDS011;64929;51.178;4.138;2023-03-01T03:48:34;10.97;;;4.80;;
76171;SDS011;64929;51.178;4.138;2023-03-01T03:51:01;9.67;;;4.83;;
76171;SDS011;64929;51.178;4.138;2023-03-01T03:53:27;12.07;;;5.23;;
76171;SDS011;64929;51.178;4.138;2023-03-01T03:55:54;11.30;;;5.70;;
76171;SDS011;64929;51.178;4.138;2023-03-01T03:58:21;6.63;;;4.60;;
76171;SDS011;64929;51.178;4.138;2023-03-01T04:00:49;7.67;;;4.47;;
76171;SDS011;64929;51.178;4.138;2023-03-01T04:03:17;7.60;;;5.00;;
76171;SDS011;64929;51.178;4.138;2023-03-01T04:05:45;7.87;;;4.70;;
76171;SDS011;64929;51.178;4.138;2023-03-01T04:08:11;8.80;;;5.00;;
76171;SDS011;64929;51.178;4.138;2023-03-01T04:10:38;10.73;;;5.60;;
76171;SDS011;64929;51.178;4.138;2023-03-01T04:13:06;10.57;;;4.80;;
76171;SDS011;64929;51.178;4.138;2023-03-01T04:15:34;8.80;;;4.90;;
76171;SDS011;64929;51.178;4.138;2023-03-01T04:18:00;10.10;;;4.93;;
76171;SDS011;64929;51.178;4.138;2023-03-01T04:20:27;7.90;;;4.43;;
76171;SDS011;64929;51.178;4.138;2023-03-01T04:22:57;9.05;;;5.18;;
76171;SDS011;64929;51.178;4.138;2023-03-01T04:25:24;8.70;;;4.40;;
76171;SDS011;64929;51.178;4.138;2023-03-01T04:27:51;11.03;;;5.23;;
76171;SDS011;64929;51.178;4.138;2023-03-01T04:30:16;8.73;;;4.90;;
76171;SDS011;64929;51.178;4.138;2023-03-01T04:32:42;8.93;;;4.80;;
76171;SDS011;64929;51.178;4.138;2023-03-01T04:35:08;10.27;;;4.60;;
76171;SDS011;64929;51.178;4.138;2023-03-01T04:37:34;8.33;;;4.67;;
76171;SDS011;64929;51.178;4.138;2023-03-01T04:40:00;11.20;;;6.03;;
76171;SDS011;64929;51.178;4.138;2023-03-01T04:42:37;8.37;;;4.63;;
76171;SDS011;64929;51.178;4.138;2023-03-01T04:45:03;6.87;;;4.17;;
76171;SDS011;64929;51.178;4.138;2023-03-01T04:47:37;9.43;;;4.77;;
76171;SDS011;64929;51.178;4.138;2023-03-01T04:50:11;6.77;;;3.80;;
76171;SDS011;64929;51.178;4.138;2023-03-01T04:52:39;7.57;;;4.30;;
76171;SDS011;64929;51.178;4.138;2023-03-01T04:55:05;8.17;;;4.63;;
76171;SDS011;64929;51.178;4.138;2023-03-01T04:57:31;9.77;;;4.70;;
76171;SDS011;64929;51.178;4.138;2023-03-01T04:59:57;8.37;;;4.60;;
76171;SDS011;64929;51.178;4.138;2023-03-01T05:02:23;7.07;;;3.73;;
76171;SDS011;64929;51.178;4.138;2023-03-01T05:04:49;6.87;;;4.17;;
76171;SDS011;64929;51.178;4.138;2023-03-01T05:07:14;13.40;;;4.70;;
76171;SDS011;64929;51.178;4.138;2023-03-01T05:09:45;6.80;;;4.05;;
76171;SDS011;64929;51.178;4.138;2023-03-01T05:12:12;11.07;;;5.10;;
76171;SDS011;64929;51.178;4.138;2023-03-01T05:14:38;7.53;;;4.13;;
76171;SDS011;64929;51.178;4.138;2023-03-01T05:17:04;8.70;;;3.97;;
76171;SDS011;64929;51.178;4.138;2023-03-01T05:19:31;7.63;;;4.73;;
76171;SDS011;64929;51.178;4.138;2023-03-01T05:21:57;8.37;;;4.57;;
76171;SDS011;64929;51.178;4.138;2023-03-01T05:24:27;8.93;;;4.93;;
76171;SDS011;64929;51.178;4.138;2023-03-01T05:26:54;7.47;;;4.60;;
76171;SDS011;64929;51.178;4.138;2023-03-01T05:29:20;9.30;;;4.60;;
76171;SDS011;64929;51.178;4.138;2023-03-01T05:34:17;8.60;;;4.10;;
76171;SDS011;64929;51.178;4.138;2023-03-01T05:36:42;8.83;;;4.57;;
76171;SDS011;64929;51.178;4.138;2023-03-01T05:39:08;7.63;;;3.83;;
76171;SDS011;64929;51.178;4.138;2023-03-01T05:41:33;11.50;;;4.63;;
76171;SDS011;64929;51.178;4.138;2023-03-01T05:43:59;10.57;;;4.83;;
76171;SDS011;64929;51.178;4.138;2023-03-01T05:46:25;8.40;;;3.50;;
76171;SDS011;64929;51.178;4.138;2023-03-01T05:48:50;9.20;;;4.50;;
76171;SDS011;64929;51.178;4.138;2023-03-01T05:51:16;7.97;;;4.33;;
76171;SDS011;64929;51.178;4.138;2023-03-01T05:53:42;7.20;;;4.03;;
76171;SDS011;64929;51.178;4.138;2023-03-01T05:56:08;7.17;;;3.93;;
76171;SDS011;64929;51.178;4.138;2023-03-01T05:58:33;7.43;;;3.90;;
76171;SDS011;64929;51.178;4.138;2023-03-01T06:00:59;6.13;;;4.13;;
76171;SDS011;64929;51.178;4.138;2023-03-01T06:03:25;8.50;;;4.40;;
76171;SDS011;64929;51.178;4.138;2023-03-01T06:05:56;5.67;;;4.30;;
76171;SDS011;64929;51.178;4.138;2023-03-01T06:08:22;8.03;;;4.00;;
76171;SDS011;64929;51.178;4.138;2023-03-01T06:10:49;6.57;;;3.90;;
76171;SDS011;64929;51.178;4.138;2023-03-01T06:13:14;7.93;;;4.30;;
76171;SDS011;64929;51.178;4.138;2023-03-01T06:15:40;7.30;;;4.20;;
76171;SDS011;64929;51.178;4.138;2023-03-01T06:18:06;8.53;;;4.60;;
76171;SDS011;64929;51.178;4.138;2023-03-01T06:20:32;8.87;;;4.50;;
76171;SDS011;64929;51.178;4.138;2023-03-01T06:22:57;5.97;;;3.60;;
76171;SDS011;64929;51.178;4.138;2023-03-01T06:25:30;7.73;;;4.37;;
76171;SDS011;64929;51.178;4.138;2023-03-01T06:27:55;7.80;;;4.07;;
76171;SDS011;64929;51.178;4.138;2023-03-01T06:30:22;8.13;;;4.50;;
76171;SDS011;64929;51.178;4.138;2023-03-01T06:32:49;9.53;;;4.10;;
76171;SDS011;64929;51.178;4.138;2023-03-01T06:35:16;8.17;;;3.87;;
76171;SDS011;64929;51.178;4.138;2023-03-01T06:37:42;10.80;;;4.73;;
76171;SDS011;64929;51.178;4.138;2023-03-01T06:40:09;10.57;;;4.50;;
76171;SDS011;64929;51.178;4.138;2023-03-01T06:42:36;6.97;;;4.13;;
76171;SDS011;64929;51.178;4.138;2023-03-01T06:45:04;8.77;;;4.60;;
76171;SDS011;64929;51.178;4.138;2023-03-01T06:47:31;6.73;;;4.00;;
76171;SDS011;64929;51.178;4.138;2023-03-01T06:50:01;7.20;;;4.23;;
76171;SDS011;64929;51.178;4.138;2023-03-01T06:52:27;9.67;;;4.70;;
76171;SDS011;64929;51.178;4.138;2023-03-01T06:54:53;10.00;;;4.43;;
76171;SDS011;64929;51.178;4.138;2023-03-01T06:57:19;9.10;;;4.37;;
76171;SDS011;64929;51.178;4.138;2023-03-01T06:59:46;7.53;;;4.30;;
76171;SDS011;64929;51.178;4.138;2023-03-01T07:02:12;6.57;;;3.97;;
76171;SDS011;64929;51.178;4.138;2023-03-01T07:04:39;9.80;;;4.60;;
76171;SDS011;64929;51.178;4.138;2023-03-01T07:07:04;10.27;;;3.77;;
76171;SDS011;64929;51.178;4.138;2023-03-01T07:09:30;6.17;;;4.00;;
76171;SDS011;64929;51.178;4.138;2023-03-01T07:11:57;8.37;;;4.07;;
76171;SDS011;64929;51.178;4.138;2023-03-01T07:14:23;11.03;;;4.40;;
76171;SDS011;64929;51.178;4.138;2023-03-01T07:16:52;7.20;;;3.93;;
76171;SDS011;64929;51.178;4.138;2023-03-01T07:19:18;8.93;;;4.03;;
76171;SDS011;64929;51.178;4.138;2023-03-01T07:21:44;8.43;;;4.00;;
76171;SDS011;64929;51.178;4.138;2023-03-01T07:24:10;9.97;;;4.73;;
76171;SDS011;64929;51.178;4.138;2023-03-01T07:26:35;11.47;;;4.13;;
76171;SDS011;64929;51.178;4.138;2023-03-01T07:29:05;6.87;;;4.20;;
76171;SDS011;64929;51.178;4.138;2023-03-01T07:31:32;9.70;;;4.13;;
76171;SDS011;64929;51.178;4.138;2023-03-01T07:33:58;9.17;;;4.10;;
76171;SDS011;64929;51.178;4.138;2023-03-01T07:36:24;4.90;;;3.40;;
76171;SDS011;64929;51.178;4.138;2023-03-01T07:38:50;6.90;;;4.03;;
76171;SDS011;64929;51.178;4.138;2023-03-01T07:41:16;6.17;;;4.13;;
76171;SDS011;64929;51.178;4.138;2023-03-01T07:43:42;6.40;;;3.90;;
76171;SDS011;64929;51.178;4.138;2023-03-01T07:46:07;7.60;;;4.20;;
76171;SDS011;64929;51.178;4.138;2023-03-01T07:48:33;8.07;;;4.27;;
76171;SDS011;64929;51.178;4.138;2023-03-01T07:51:00;7.07;;;3.90;;
76171;SDS011;64929;51.178;4.138;2023-03-01T07:53:26;7.93;;;3.97;;
76171;SDS011;64929;51.178;4.138;2023-03-01T07:56:09;14.70;;;3.63;;
76171;SDS011;64929;51.178;4.138;2023-03-01T07:58:40;6.60;;;3.87;;
76171;SDS011;64929;51.178;4.138;2023-03-01T08:01:08;7.23;;;4.17;;
76171;SDS011;64929;51.178;4.138;2023-03-01T08:03:36;6.97;;;4.30;;
76171;SDS011;64929;51.178;4.138;2023-03-01T08:06:03;7.93;;;4.10;;
76171;SDS011;64929;51.178;4.138;2023-03-01T08:08:30;7.80;;;3.87;;
76171;SDS011;64929;51.178;4.138;2023-03-01T08:10:57;5.60;;;3.60;;
76171;SDS011;64929;51.178;4.138;2023-03-01T08:13:24;8.00;;;3.37;;
76171;SDS011;64929;51.178;4.138;2023-03-01T08:15:50;6.80;;;3.37;;
76171;SDS011;64929;51.178;4.138;2023-03-01T08:18:17;9.23;;;3.70;;
76171;SDS011;64929;51.178;4.138;2023-03-01T08:20:43;11.83;;;4.33;;
76171;SDS011;64929;51.178;4.138;2023-03-01T08:23:09;4.27;;;3.30;;
76171;SDS011;64929;51.178;4.138;2023-03-01T08:25:35;6.43;;;3.70;;
76171;SDS011;64929;51.178;4.138;2023-03-01T08:28:01;6.93;;;3.90;;
76171;SDS011;64929;51.178;4.138;2023-03-01T08:30:27;7.47;;;4.40;;
76171;SDS011;64929;51.178;4.138;2023-03-01T08:32:53;7.53;;;4.37;;
76171;SDS011;64929;51.178;4.138;2023-03-01T08:35:19;5.93;;;3.57;;
76171;SDS011;64929;51.178;4.138;2023-03-01T08:37:45;6.20;;;3.47;;
76171;SDS011;64929;51.178;4.138;2023-03-01T08:40:11;6.83;;;3.90;;
76171;SDS011;64929;51.178;4.138;2023-03-01T08:42:38;7.03;;;4.03;;
76171;SDS011;64929;51.178;4.138;2023-03-01T08:45:05;5.40;;;3.30;;
76171;SDS011;64929;51.178;4.138;2023-03-01T08:47:31;5.70;;;3.57;;
76171;SDS011;64929;51.178;4.138;2023-03-01T08:49:58;7.90;;;3.30;;
76171;SDS011;64929;51.178;4.138;2023-03-01T08:52:24;9.47;;;3.70;;
76171;SDS011;64929;51.178;4.138;2023-03-01T08:54:51;11.13;;;3.20;;
76171;SDS011;64929;51.178;4.138;2023-03-01T08:57:17;5.23;;;3.50;;
76171;SDS011;64929;51.178;4.138;2023-03-01T08:59:43;6.20;;;3.13;;
76171;SDS011;64929;51.178;4.138;2023-03-01T09:02:11;7.03;;;3.40;;
76171;SDS011;64929;51.178;4.138;2023-03-01T09:04:39;6.10;;;3.23;;
76171;SDS011;64929;51.178;4.138;2023-03-01T09:07:05;4.63;;;3.17;;
76171;SDS011;64929;51.178;4.138;2023-03-01T09:09:31;6.77;;;3.43;;
76171;SDS011;64929;51.178;4.138;2023-03-01T09:11:57;5.93;;;3.27;;
76171;SDS011;64929;51.178;4.138;2023-03-01T09:14:23;4.83;;;3.07;;
76171;SDS011;64929;51.178;4.138;2023-03-01T09:16:49;4.93;;;3.30;;
76171;SDS011;64929;51.178;4.138;2023-03-01T09:19:15;8.20;;;3.13;;
76171;SDS011;64929;51.178;4.138;2023-03-01T09:21:41;6.57;;;3.93;;
76171;SDS011;64929;51.178;4.138;2023-03-01T09:24:17;8.93;;;3.97;;
76171;SDS011;64929;51.178;4.138;2023-03-01T09:26:45;7.00;;;3.63;;
76171;SDS011;64929;51.178;4.138;2023-03-01T09:29:11;6.30;;;3.63;;
76171;SDS011;64929;51.178;4.138;2023-03-01T09:31:37;6.03;;;3.20;;
76171;SDS011;64929;51.178;4.138;2023-03-01T09:34:03;8.33;;;3.33;;
76171;SDS011;64929;51.178;4.138;2023-03-01T09:36:29;8.43;;;4.33;;
76171;SDS011;64929;51.178;4.138;2023-03-01T09:38:54;9.63;;;3.93;;
76171;SDS011;64929;51.178;4.138;2023-03-01T09:47:24;6.28;;;3.33;;
76171;SDS011;64929;51.178;4.138;2023-03-01T09:50:01;5.37;;;4.00;;
76171;SDS011;64929;51.178;4.138;2023-03-01T09:55:29;5.87;;;3.43;;
76171;SDS011;64929;51.178;4.138;2023-03-01T10:00:54;6.07;;;3.67;;
76171;SDS011;64929;51.178;4.138;2023-03-01T10:03:27;4.55;;;2.85;;
76171;SDS011;64929;51.178;4.138;2023-03-01T10:06:12;11.37;;;3.70;;
76171;SDS011;64929;51.178;4.138;2023-03-01T10:08:54;9.17;;;3.80;;
76171;SDS011;64929;51.178;4.138;2023-03-01T10:11:24;5.82;;;3.10;;
76171;SDS011;64929;51.178;4.138;2023-03-01T10:14:09;5.97;;;3.85;;
76171;SDS011;64929;51.178;4.138;2023-03-01T10:16:51;5.93;;;3.58;;
76171;SDS011;64929;51.178;4.138;2023-03-01T10:19:31;5.55;;;3.45;;
76171;SDS011;64929;51.178;4.138;2023-03-01T10:22:15;6.25;;;4.07;;
76171;SDS011;64929;51.178;4.138;2023-03-01T10:24:41;5.57;;;3.60;;
76171;SDS011;64929;51.178;4.138;2023-03-01T10:27:09;6.30;;;3.60;;
76171;SDS011;64929;51.178;4.138;2023-03-01T10:29:49;5.95;;;3.35;;
76171;SDS011;64929;51.178;4.138;2023-03-01T10:32:36;4.90;;;3.05;;
76171;SDS011;64929;51.178;4.138;2023-03-01T10:35:15;6.78;;;3.78;;
76171;SDS011;64929;51.178;4.138;2023-03-01T10:37:58;6.32;;;3.47;;
76171;SDS011;64929;51.178;4.138;2023-03-01T10:40:32;5.30;;;3.20;;
76171;SDS011;64929;51.178;4.138;2023-03-01T10:42:59;9.70;;;3.35;;
76171;SDS011;64929;51.178;4.138;2023-03-01T10:48:23;7.10;;;3.03;;
76171;SDS011;64929;51.178;4.138;2023-03-01T10:51:04;4.32;;;3.10;;
76171;SDS011;64929;51.178;4.138;2023-03-01T10:53:38;6.00;;;3.50;;
76171;SDS011;64929;51.178;4.138;2023-03-01T10:56:08;7.40;;;3.38;;
76171;SDS011;64929;51.178;4.138;2023-03-01T10:58:35;6.50;;;3.22;;
76171;SDS011;64929;51.178;4.138;2023-03-01T11:03:40;5.18;;;3.33;;
76171;SDS011;64929;51.178;4.138;2023-03-01T11:06:19;5.15;;;3.22;;
76171;SDS011;64929;51.178;4.138;2023-03-01T11:08:48;4.65;;;3.20;;
76171;SDS011;64929;51.178;4.138;2023-03-01T11:11:20;5.32;;;3.28;;
76171;SDS011;64929;51.178;4.138;2023-03-01T11:13:56;6.05;;;3.13;;
76171;SDS011;64929;51.178;4.138;2023-03-01T11:16:41;5.15;;;3.17;;
76171;SDS011;64929;51.178;4.138;2023-03-01T11:21:36;5.20;;;3.63;;
76171;SDS011;64929;51.178;4.138;2023-03-01T11:24:25;4.30;;;2.90;;
76171;SDS011;64929;51.178;4.138;2023-03-01T11:26:55;7.55;;;3.17;;
76171;SDS011;64929;51.178;4.138;2023-03-01T11:29:25;5.82;;;3.50;;
76171;SDS011;64929;51.178;4.138;2023-03-01T11:31:52;8.85;;;3.40;;
76171;SDS011;64929;51.178;4.138;2023-03-01T11:34:31;6.28;;;3.42;;
76171;SDS011;64929;51.178;4.138;2023-03-01T11:37:08;6.50;;;3.63;;
76171;SDS011;64929;51.178;4.138;2023-03-01T11:45:52;3.80;;;2.78;;
76171;SDS011;64929;51.178;4.138;2023-03-01T11:48:48;5.60;;;4.03;;
76171;SDS011;64929;51.178;4.138;2023-03-01T12:00:17;5.70;;;3.42;;
76171;SDS011;64929;51.178;4.138;2023-03-01T12:08:27;7.30;;;3.83;;
76171;SDS011;64929;51.178;4.138;2023-03-01T12:22:44;6.82;;;3.75;;
76171;SDS011;64929;51.178;4.138;2023-03-01T12:33:51;7.75;;;4.05;;
76171;SDS011;64929;51.178;4.138;2023-03-01T12:41:46;4.93;;;3.42;;
76171;SDS011;64929;51.178;4.138;2023-03-01T12:47:25;5.88;;;3.30;;
76171;SDS011;64929;51.178;4.138;2023-03-01T12:49:59;5.93;;;3.75;;
76171;SDS011;64929;51.178;4.138;2023-03-01T12:52:37;5.07;;;3.40;;
76171;SDS011;64929;51.178;4.138;2023-03-01T12:58:16;5.20;;;3.50;;
76171;SDS011;64929;51.178;4.138;2023-03-01T13:01:00;5.45;;;3.10;;
76171;SDS011;64929;51.178;4.138;2023-03-01T13:11:40;5.22;;;3.45;;
76171;SDS011;64929;51.178;4.138;2023-03-01T13:16:46;8.02;;;3.20;;
76171;SDS011;64929;51.178;4.138;2023-03-01T13:19:21;4.45;;;3.00;;
76171;SDS011;64929;51.178;4.138;2023-03-01T13:21:48;3.45;;;2.65;;
76171;SDS011;64929;51.178;4.138;2023-03-01T13:32:27;6.22;;;3.35;;
76171;SDS011;64929;51.178;4.138;2023-03-01T13:37:33;5.78;;;3.53;;
76171;SDS011;64929;51.178;4.138;2023-03-01T13:40:07;6.00;;;3.28;;
76171;SDS011;64929;51.178;4.138;2023-03-01T13:42:49;5.47;;;3.65;;
76171;SDS011;64929;51.178;4.138;2023-03-01T13:47:52;4.10;;;2.78;;
76171;SDS011;64929;51.178;4.138;2023-03-01T13:50:27;6.15;;;3.45;;
76171;SDS011;64929;51.178;4.138;2023-03-01T13:53:03;6.13;;;3.53;;
76171;SDS011;64929;51.178;4.138;2023-03-01T13:58:01;6.05;;;3.78;;
76171;SDS011;64929;51.178;4.138;2023-03-01T14:00:33;5.60;;;3.63;;
76171;SDS011;64929;51.178;4.138;2023-03-01T14:03:10;6.85;;;3.67;;
76171;SDS011;64929;51.178;4.138;2023-03-01T14:05:37;6.15;;;3.45;;
76171;SDS011;64929;51.178;4.138;2023-03-01T14:08:05;6.93;;;3.20;;
76171;SDS011;64929;51.178;4.138;2023-03-01T14:16:36;5.57;;;3.13;;
76171;SDS011;64929;51.178;4.138;2023-03-01T14:19:09;10.48;;;3.63;;
76171;SDS011;64929;51.178;4.138;2023-03-01T14:21:43;5.50;;;3.63;;
76171;SDS011;64929;51.178;4.138;2023-03-01T14:24:22;6.03;;;3.67;;
76171;SDS011;64929;51.178;4.138;2023-03-01T14:26:49;4.75;;;2.97;;
76171;SDS011;64929;51.178;4.138;2023-03-01T14:29:25;6.13;;;3.45;;
76171;SDS011;64929;51.178;4.138;2023-03-01T14:31:53;6.13;;;3.13;;
76171;SDS011;64929;51.178;4.138;2023-03-01T14:34:20;5.15;;;3.53;;
76171;SDS011;64929;51.178;4.138;2023-03-01T14:36:47;4.65;;;3.40;;
76171;SDS011;64929;51.178;4.138;2023-03-01T14:39:20;9.45;;;3.50;;
76171;SDS011;64929;51.178;4.138;2023-03-01T14:41:50;4.05;;;3.08;;
76171;SDS011;64929;51.178;4.138;2023-03-01T14:44:21;5.90;;;3.35;;
76171;SDS011;64929;51.178;4.138;2023-03-01T14:46:51;6.43;;;3.45;;
76171;SDS011;64929;51.178;4.138;2023-03-01T14:49:23;5.15;;;3.50;;
76171;SDS011;64929;51.178;4.138;2023-03-01T14:51:53;5.05;;;3.63;;
76171;SDS011;64929;51.178;4.138;2023-03-01T14:54:43;4.28;;;3.33;;
76171;SDS011;64929;51.178;4.138;2023-03-01T14:57:16;7.13;;;4.15;;
76171;SDS011;64929;51.178;4.138;2023-03-01T14:59:50;8.18;;;3.90;;
76171;SDS011;64929;51.178;4.138;2023-03-01T15:02:19;5.93;;;3.35;;
76171;SDS011;64929;51.178;4.138;2023-03-01T15:04:49;6.20;;;3.15;;
76171;SDS011;64929;51.178;4.138;2023-03-01T15:07:23;4.85;;;2.90;;
76171;SDS011;64929;51.178;4.138;2023-03-01T15:09:54;4.65;;;3.15;;
76171;SDS011;64929;51.178;4.138;2023-03-01T15:12:25;4.95;;;3.00;;
76171;SDS011;64929;51.178;4.138;2023-03-01T15:14:54;4.88;;;3.20;;
76171;SDS011;64929;51.178;4.138;2023-03-01T15:17:34;4.30;;;3.35;;
76171;SDS011;64929;51.178;4.138;2023-03-01T15:20:04;5.85;;;3.70;;
76171;SDS011;64929;51.178;4.138;2023-03-01T15:22:43;4.30;;;3.30;;
76171;SDS011;64929;51.178;4.138;2023-03-01T15:25:19;4.20;;;2.92;;
76171;SDS011;64929;51.178;4.138;2023-03-01T15:27:48;4.75;;;3.10;;
76171;SDS011;64929;51.178;4.138;2023-03-01T15:35:52;4.97;;;3.33;;
76171;SDS011;64929;51.178;4.138;2023-03-01T15:38:36;5.53;;;3.58;;
76171;SDS011;64929;51.178;4.138;2023-03-01T15:43:58;4.50;;;3.50;;
76171;SDS011;64929;51.178;4.138;2023-03-01T15:46:31;6.03;;;3.55;;
76171;SDS011;64929;51.178;4.138;2023-03-01T15:49:03;5.95;;;4.30;;
76171;SDS011;64929;51.178;4.138;2023-03-01T15:51:34;4.68;;;3.22;;
76171;SDS011;64929;51.178;4.138;2023-03-01T15:54:06;7.07;;;3.80;;
76171;SDS011;64929;51.178;4.138;2023-03-01T15:56:43;5.53;;;3.15;;
76171;SDS011;64929;51.178;4.138;2023-03-01T15:59:09;5.30;;;3.80;;
76171;SDS011;64929;51.178;4.138;2023-03-01T16:01:39;6.03;;;4.05;;
76171;SDS011;64929;51.178;4.138;2023-03-01T16:04:05;7.90;;;3.65;;
76171;SDS011;64929;51.178;4.138;2023-03-01T16:06:31;4.82;;;3.45;;
76171;SDS011;64929;51.178;4.138;2023-03-01T16:08:57;5.03;;;3.33;;
76171;SDS011;64929;51.178;4.138;2023-03-01T16:11:22;8.27;;;3.88;;
76171;SDS011;64929;51.178;4.138;2023-03-01T16:13:48;4.78;;;3.15;;
76171;SDS011;64929;51.178;4.138;2023-03-01T16:16:15;5.35;;;3.35;;
76171;SDS011;64929;51.178;4.138;2023-03-01T16:18:45;5.35;;;3.80;;
76171;SDS011;64929;51.178;4.138;2023-03-01T16:21:13;5.20;;;3.60;;
76171;SDS011;64929;51.178;4.138;2023-03-01T16:23:41;5.35;;;3.47;;
76171;SDS011;64929;51.178;4.138;2023-03-01T16:26:07;6.97;;;3.95;;
76171;SDS011;64929;51.178;4.138;2023-03-01T16:28:33;5.93;;;4.05;;
76171;SDS011;64929;51.178;4.138;2023-03-01T16:30:59;6.68;;;3.83;;
76171;SDS011;64929;51.178;4.138;2023-03-01T16:33:26;5.60;;;3.75;;
76171;SDS011;64929;51.178;4.138;2023-03-01T16:35:52;6.13;;;4.20;;
76171;SDS011;64929;51.178;4.138;2023-03-01T16:38:17;8.15;;;4.22;;
76171;SDS011;64929;51.178;4.138;2023-03-01T16:40:46;6.47;;;4.45;;
76171;SDS011;64929;51.178;4.138;2023-03-01T16:43:13;5.63;;;3.78;;
76171;SDS011;64929;51.178;4.138;2023-03-01T16:45:39;6.90;;;4.32;;
76171;SDS011;64929;51.178;4.138;2023-03-01T16:48:05;8.07;;;4.10;;
76171;SDS011;64929;51.178;4.138;2023-03-01T16:50:31;6.05;;;3.67;;
76171;SDS011;64929;51.178;4.138;2023-03-01T16:52:57;5.95;;;3.85;;
76171;SDS011;64929;51.178;4.138;2023-03-01T16:55:23;7.55;;;4.32;;
76171;SDS011;64929;51.178;4.138;2023-03-01T16:57:52;5.20;;;3.63;;
76171;SDS011;64929;51.178;4.138;2023-03-01T17:00:17;5.38;;;3.70;;
76171;SDS011;64929;51.178;4.138;2023-03-01T17:02:44;5.35;;;3.55;;
76171;SDS011;64929;51.178;4.138;2023-03-01T17:05:10;5.68;;;4.18;;
76171;SDS011;64929;51.178;4.138;2023-03-01T17:07:41;5.85;;;4.00;;